createdAt,value
2018-12-12T00:00:54.806Z,3.29
2018-12-12T00:03:25.837Z,3.29
2018-12-12T00:05:56.905Z,3.26
2018-12-12T00:08:26.065Z,3.25
2018-12-12T00:10:55.082Z,3.24
2018-12-12T00:13:24.410Z,3.25
2018-12-12T00:15:53.664Z,3.25
2018-12-12T00:18:23.529Z,3.24
2018-12-12T00:20:52.577Z,3.24
2018-12-12T00:23:21.609Z,3.27
2018-12-12T00:25:51.600Z,3.26
2018-12-12T00:28:21.092Z,3.31
2018-12-12T00:30:50.263Z,3.30
2018-12-12T00:33:19.574Z,3.17
2018-12-12T00:35:48.697Z,3.22
2018-12-12T00:38:17.735Z,3.07
2018-12-12T00:40:46.778Z,3.03
2018-12-12T00:43:16.122Z,3.00
2018-12-12T00:45:45.213Z,2.97
2018-12-12T00:48:14.233Z,2.99
2018-12-12T00:50:43.278Z,2.95
2018-12-12T00:53:12.298Z,2.98
2018-12-12T00:55:41.347Z,2.92
2018-12-12T00:58:10.937Z,2.91
2018-12-12T01:00:40.134Z,2.91
2018-12-12T01:03:09.225Z,2.89
2018-12-12T01:05:39.699Z,2.86
2018-12-12T01:08:08.711Z,2.84
2018-12-12T01:10:37.849Z,2.83
2018-12-12T01:13:07.390Z,2.84
2018-12-12T01:15:36.541Z,2.81
2018-12-12T01:18:05.762Z,2.82
2018-12-12T01:20:35.185Z,2.78
2018-12-12T01:23:04.245Z,2.81
2018-12-12T01:25:33.287Z,2.74
2018-12-12T01:28:02.846Z,2.79
2018-12-12T01:30:31.994Z,2.76
2018-12-12T01:33:01.013Z,2.72
2018-12-12T01:35:30.439Z,2.69
2018-12-12T01:37:59.750Z,2.68
2018-12-12T01:40:28.757Z,2.75
2018-12-12T01:42:58.083Z,2.73
2018-12-12T01:45:27.218Z,2.73
2018-12-12T01:47:56.282Z,2.85
2018-12-12T01:50:25.544Z,2.79
2018-12-12T01:52:54.647Z,2.67
2018-12-12T01:55:23.666Z,2.64
2018-12-12T01:57:53.280Z,2.63
2018-12-12T02:00:22.321Z,2.67
2018-12-12T02:02:51.397Z,2.66
2018-12-12T02:05:20.917Z,2.63
2018-12-12T02:07:50.118Z,2.64
2018-12-12T02:10:19.530Z,2.52
2018-12-12T02:15:20.068Z,2.30
2018-12-12T02:17:49.160Z,2.23
2018-12-12T02:20:18.257Z,2.18
2018-12-12T02:22:47.659Z,2.11
2018-12-12T02:25:16.737Z,2.18
2018-12-12T02:27:45.938Z,2.18
2018-12-12T02:30:15.348Z,2.17
2018-12-12T02:32:44.447Z,2.13
2018-12-12T02:35:13.646Z,2.14
2018-12-12T02:37:43.113Z,2.27
2018-12-12T02:40:12.551Z,2.28
2018-12-12T02:42:41.751Z,2.23
2018-12-12T02:45:11.458Z,2.21
2018-12-12T02:47:40.534Z,2.08
2018-12-12T02:50:10.054Z,1.94
2018-12-12T02:52:40.983Z,1.90
2018-12-12T02:55:10.144Z,1.85
2018-12-12T02:57:39.388Z,1.66
2018-12-12T03:00:10.178Z,1.71
2018-12-12T03:02:39.209Z,1.63
2018-12-12T03:05:08.627Z,1.19
2018-12-12T03:07:38.020Z,1.51
2018-12-12T03:10:07.175Z,1.51
2018-12-12T03:12:36.221Z,1.51
2018-12-12T03:15:06.453Z,1.47
2018-12-12T03:17:35.834Z,1.44
2018-12-12T03:20:05.355Z,1.44
2018-12-12T03:22:35.009Z,1.49
2018-12-12T03:25:04.786Z,1.43
2018-12-12T03:27:33.845Z,1.50
2018-12-12T03:30:03.451Z,1.55
2018-12-12T03:32:33.456Z,1.52
2018-12-12T03:35:02.705Z,1.54
2018-12-12T03:37:32.079Z,1.45
2018-12-12T03:40:01.667Z,1.45
2018-12-12T03:42:31.313Z,1.42
2018-12-12T03:45:00.689Z,1.37
2018-12-12T03:47:29.916Z,1.41
2018-12-12T03:49:58.938Z,1.42
2018-12-12T03:52:29.219Z,1.44
2018-12-12T03:54:58.278Z,1.44
2018-12-12T03:57:27.414Z,1.38
2018-12-12T03:59:57.365Z,1.29
2018-12-12T04:02:26.582Z,1.17
2018-12-12T04:04:55.819Z,1.15
2018-12-12T04:07:25.218Z,1.16
2018-12-12T04:09:54.254Z,1.30
2018-12-12T04:12:23.281Z,1.23
2018-12-12T04:14:52.705Z,1.24
2018-12-12T04:17:22.497Z,1.18
2018-12-12T04:19:52.204Z,1.14
2018-12-12T04:22:22.046Z,1.04
2018-12-12T04:24:51.498Z,1.09
2018-12-12T04:27:20.518Z,1.28
2018-12-12T04:29:50.582Z,1.18
2018-12-12T04:32:19.843Z,1.26
2018-12-12T04:34:48.942Z,1.21
2018-12-12T04:37:18.358Z,1.16
2018-12-12T04:39:47.929Z,1.15
2018-12-12T04:42:16.975Z,1.18
2018-12-12T04:44:46.358Z,1.20
2018-12-12T04:47:15.464Z,1.19
2018-12-12T04:49:44.833Z,1.31
2018-12-12T04:52:15.224Z,1.41
2018-12-12T04:54:44.274Z,1.37
2018-12-12T04:57:13.626Z,1.36
2018-12-12T04:59:43.173Z,1.51
2018-12-12T05:02:14.398Z,1.58
2018-12-12T05:04:43.956Z,1.51
2018-12-12T05:07:13.013Z,1.62
2018-12-12T05:09:42.836Z,1.72
2018-12-12T05:12:12.443Z,1.78
2018-12-12T05:14:41.787Z,1.78
2018-12-12T05:17:10.854Z,1.80
2018-12-12T05:19:40.260Z,1.62
2018-12-12T05:22:09.841Z,1.49
2018-12-12T05:24:38.941Z,1.38
2018-12-12T05:27:08.574Z,1.27
2018-12-12T05:29:37.903Z,1.30
2018-12-12T05:32:07.161Z,1.28
2018-12-12T05:34:36.206Z,1.25
2018-12-12T05:37:05.389Z,1.22
2018-12-12T05:39:34.454Z,1.09
2018-12-12T05:42:03.945Z,1.19
2018-12-12T05:44:33.009Z,0.99
2018-12-12T05:47:03.745Z,1.14
2018-12-12T05:49:34.240Z,1.33
2018-12-12T05:52:03.918Z,1.53
2018-12-12T05:54:35.045Z,1.64
2018-12-12T05:57:04.568Z,1.63
2018-12-12T05:59:33.761Z,1.64
2018-12-12T06:02:03.314Z,1.67
2018-12-12T06:04:32.938Z,1.75
2018-12-12T06:07:02.537Z,1.76
2018-12-12T06:09:32.747Z,1.79
2018-12-12T06:12:03.689Z,1.70
2018-12-12T06:14:33.713Z,1.81
2018-12-12T06:17:04.361Z,1.86
2018-12-12T06:19:33.425Z,1.80
2018-12-12T06:22:03.992Z,1.66
2018-12-12T06:24:33.050Z,1.51
2018-12-12T06:27:02.768Z,1.57
2018-12-12T06:29:32.277Z,1.57
2018-12-12T06:32:01.318Z,1.41
2018-12-12T06:34:31.733Z,1.44
2018-12-12T06:37:00.821Z,1.19
2018-12-12T06:39:29.869Z,1.17
2018-12-12T06:41:59.319Z,1.22
2018-12-12T06:44:29.814Z,1.23
2018-12-12T06:46:58.929Z,1.07
2018-12-12T06:49:28.015Z,1.16
2018-12-12T06:51:57.115Z,1.04
2018-12-12T06:54:26.149Z,0.98
2018-12-12T06:56:55.531Z,0.93
2018-12-12T06:59:24.554Z,0.80
2018-12-12T07:01:53.662Z,0.91
2018-12-12T07:04:22.684Z,0.79
2018-12-12T07:06:51.702Z,0.69
2018-12-12T07:09:20.745Z,0.68
2018-12-12T07:11:49.957Z,0.69
2018-12-12T07:14:20.107Z,0.63
2018-12-12T07:16:49.166Z,0.56
2018-12-12T07:19:18.209Z,0.72
2018-12-12T07:21:47.219Z,0.81
2018-12-12T07:24:16.242Z,0.81
2018-12-12T07:26:45.589Z,0.65
2018-12-12T07:29:14.611Z,0.36
2018-12-12T07:31:44.485Z,0.75
2018-12-12T07:34:14.001Z,0.74
2018-12-12T07:36:43.029Z,0.86
2018-12-12T07:39:17.701Z,0.89
2018-12-12T07:41:43.163Z,1.03
2018-12-12T07:44:14.130Z,1.20
2018-12-12T07:47:02.028Z,1.04
2018-12-12T07:49:34.489Z,1.14
2018-12-12T07:52:24.678Z,0.92
2018-12-12T07:54:53.929Z,0.97
2018-12-12T07:57:23.045Z,0.93
2018-12-12T07:59:52.165Z,0.96
2018-12-12T08:02:22.419Z,0.82
2018-12-12T08:04:51.701Z,0.90
2018-12-12T08:07:21.126Z,0.90
2018-12-12T08:09:52.026Z,0.95
2018-12-12T08:12:23.804Z,0.95
2018-12-12T08:14:53.044Z,0.99
2018-12-12T08:17:22.082Z,0.86
2018-12-12T08:19:51.274Z,0.89
2018-12-12T08:22:20.566Z,0.90
2018-12-12T08:24:49.696Z,0.84
2018-12-12T08:27:19.075Z,0.79
2018-12-12T08:29:48.259Z,0.91
2018-12-12T08:32:18.339Z,0.94
2018-12-12T08:34:47.823Z,0.91
2018-12-12T08:37:16.985Z,0.98
2018-12-12T08:39:46.062Z,0.88
2018-12-12T08:42:16.006Z,1.08
2018-12-12T08:44:45.149Z,1.00
2018-12-12T08:47:14.218Z,0.97
2018-12-12T08:49:44.529Z,1.07
2018-12-12T08:52:13.709Z,1.15
2018-12-12T08:54:43.414Z,1.19
2018-12-12T08:57:12.874Z,1.15
2018-12-12T08:59:42.233Z,1.06
2018-12-12T09:02:11.409Z,1.09
2018-12-12T09:04:40.756Z,1.00
2018-12-12T09:07:10.279Z,1.14
2018-12-12T09:09:40.877Z,1.28
2018-12-12T09:12:10.021Z,1.21
2018-12-12T09:14:39.706Z,1.16
2018-12-12T09:17:10.841Z,1.15
2018-12-12T09:19:42.807Z,0.92
2018-12-12T09:22:13.294Z,0.82
2018-12-12T09:24:42.847Z,0.95
2018-12-12T09:27:13.881Z,0.93
2018-12-12T09:29:44.138Z,0.93
2018-12-12T09:32:15.210Z,0.89
2018-12-12T09:34:46.561Z,0.87
2018-12-12T09:37:16.176Z,0.93
2018-12-12T09:39:45.204Z,0.99
2018-12-12T09:42:14.388Z,0.98
2018-12-12T09:44:43.441Z,0.99
2018-12-12T09:47:13.385Z,0.89
2018-12-12T09:49:42.687Z,1.04
2018-12-12T09:52:13.698Z,1.17
2018-12-12T09:54:45.785Z,1.19
2018-12-12T09:57:14.855Z,1.10
2018-12-12T09:59:43.960Z,1.15
2018-12-12T10:02:13.377Z,1.14
2018-12-12T10:04:42.465Z,1.30
2018-12-12T10:07:11.473Z,1.44
2018-12-12T10:09:40.550Z,1.46
2018-12-12T10:12:09.571Z,1.49
2018-12-12T10:14:39.209Z,1.68
2018-12-12T10:17:08.453Z,1.66
2018-12-12T10:19:37.547Z,1.72
2018-12-12T10:22:06.795Z,1.68
2018-12-12T10:24:36.095Z,1.64
2018-12-12T10:27:05.356Z,1.61
2018-12-12T10:29:34.418Z,1.62
2018-12-12T10:32:03.777Z,1.46
2018-12-12T10:34:33.463Z,1.37
2018-12-12T10:37:02.666Z,1.44
2018-12-12T10:39:31.755Z,1.54
2018-12-12T10:42:01.684Z,1.62
2018-12-12T10:44:30.774Z,1.51
2018-12-12T10:47:00.195Z,1.48
2018-12-12T10:49:29.682Z,1.37
2018-12-12T10:51:58.751Z,1.56
2018-12-12T10:54:28.134Z,1.52
2018-12-12T10:56:57.256Z,1.43
2018-12-12T10:59:26.430Z,1.34
2018-12-12T11:02:01.141Z,1.38
2018-12-12T11:04:30.839Z,1.40
2018-12-12T11:07:00.022Z,1.32
2018-12-12T11:09:29.570Z,1.26
2018-12-12T11:11:58.807Z,1.24
2018-12-12T11:14:27.961Z,1.17
2018-12-12T11:16:57.275Z,1.12
2018-12-12T11:19:26.329Z,1.31
2018-12-12T11:21:55.337Z,1.37
2018-12-12T11:24:24.401Z,1.42
2018-12-12T11:26:53.418Z,1.47
2018-12-12T11:29:23.565Z,1.43
2018-12-12T11:31:52.995Z,1.43
2018-12-12T11:34:22.074Z,1.54
2018-12-12T11:36:52.502Z,1.47
2018-12-12T11:39:21.545Z,1.49
2018-12-12T11:41:50.553Z,1.49
2018-12-12T11:44:19.596Z,1.71
2018-12-12T11:46:48.797Z,1.86
2018-12-12T11:49:17.861Z,1.91
2018-12-12T11:51:47.184Z,1.85
2018-12-12T11:54:16.258Z,1.75
2018-12-12T11:56:45.457Z,1.91
2018-12-12T11:59:14.570Z,1.89
2018-12-12T12:01:43.717Z,1.97
2018-12-12T12:04:12.854Z,1.93
2018-12-12T12:06:41.941Z,2.06
2018-12-12T12:09:10.969Z,2.17
2018-12-12T12:11:39.986Z,2.26
2018-12-12T12:14:11.084Z,2.17
2018-12-12T12:16:41.669Z,2.32
2018-12-12T12:19:10.824Z,2.31
2018-12-12T12:21:39.854Z,2.31
2018-12-12T12:24:08.979Z,2.23
2018-12-12T12:26:38.898Z,2.05
2018-12-12T12:29:08.208Z,2.08
2018-12-12T12:31:38.376Z,1.94
2018-12-12T12:34:09.056Z,1.90
2018-12-12T12:36:38.215Z,1.82
2018-12-12T12:39:08.989Z,1.80
2018-12-12T12:41:39.129Z,1.94
2018-12-12T12:44:08.605Z,1.92
2018-12-12T12:46:38.444Z,1.35
2018-12-12T12:49:09.977Z,1.75
2018-12-12T12:51:38.989Z,1.85
2018-12-12T12:54:09.573Z,1.79
2018-12-12T12:56:39.307Z,1.71
2018-12-12T12:59:10.349Z,1.73
2018-12-12T13:02:42.733Z,1.59
2018-12-12T13:05:12.445Z,1.46
2018-12-12T13:07:41.529Z,1.51
2018-12-12T13:10:11.670Z,1.50
2018-12-12T13:12:41.409Z,1.56
2018-12-12T13:15:10.686Z,1.63
2018-12-12T13:17:39.749Z,1.70
2018-12-12T13:20:09.373Z,1.67
2018-12-12T13:22:39.193Z,1.62
2018-12-12T13:25:08.403Z,1.58
2018-12-12T13:27:37.791Z,1.52
2018-12-12T13:30:07.066Z,1.50
2018-12-12T13:32:36.531Z,1.58
2018-12-12T13:35:06.290Z,1.59
2018-12-12T13:37:35.618Z,1.54
2018-12-12T13:40:05.769Z,1.60
2018-12-12T13:42:34.842Z,1.63
2018-12-12T13:45:04.327Z,1.70
2018-12-12T13:47:33.624Z,1.67
2018-12-12T13:50:03.398Z,1.71
2018-12-12T13:52:32.501Z,1.65
2018-12-12T13:55:01.805Z,1.74
2018-12-12T13:57:31.178Z,1.71
2018-12-12T14:00:00.526Z,1.68
2018-12-12T14:02:29.831Z,1.77
2018-12-12T14:04:59.248Z,1.68
2018-12-12T14:07:28.320Z,1.78
2018-12-12T14:09:57.335Z,1.76
2018-12-12T14:12:26.710Z,1.71
2018-12-12T14:14:55.795Z,1.67
2018-12-12T14:17:24.893Z,1.70
2018-12-12T14:19:54.282Z,1.76
2018-12-12T14:22:23.411Z,1.77
2018-12-12T14:24:52.585Z,1.71
2018-12-12T14:27:21.969Z,1.54
2018-12-12T14:29:51.577Z,1.34
2018-12-12T14:32:20.775Z,1.21
2018-12-12T14:34:49.855Z,1.22
2018-12-12T14:37:19.422Z,1.13
2018-12-12T14:39:48.537Z,1.10
2018-12-12T14:42:17.599Z,1.05
2018-12-12T14:44:47.018Z,1.08
2018-12-12T14:47:16.206Z,0.97
2018-12-12T14:49:47.004Z,0.82
2018-12-12T14:52:16.285Z,0.79
2018-12-12T14:54:45.455Z,0.62
2018-12-12T14:57:14.526Z,0.56
2018-12-12T14:59:43.574Z,0.52
2018-12-12T15:02:12.869Z,0.48
2018-12-12T15:04:42.378Z,0.35
2018-12-12T15:07:11.743Z,0.33
2018-12-12T15:09:41.024Z,0.29
2018-12-12T15:12:10.638Z,0.20
2018-12-12T15:14:39.919Z,0.32
2018-12-12T15:17:09.897Z,0.18
2018-12-12T15:19:39.471Z,0.23
2018-12-12T15:22:09.175Z,0.23
2018-12-12T15:24:39.522Z,0.26
2018-12-12T15:27:08.751Z,0.28
2018-12-12T15:29:38.081Z,0.26
2018-12-12T15:32:07.299Z,0.32
2018-12-12T15:34:42.211Z,0.29
2018-12-12T15:37:07.715Z,0.37
2018-12-12T15:39:36.919Z,0.45
2018-12-12T15:42:05.962Z,0.46
2018-12-12T15:44:34.989Z,0.47
2018-12-12T15:47:10.598Z,0.56
2018-12-12T15:49:39.653Z,0.60
2018-12-12T15:52:08.740Z,0.58
2018-12-12T15:54:37.993Z,0.67
2018-12-12T15:57:07.863Z,0.67
2018-12-12T15:59:37.525Z,0.66
2018-12-12T16:02:06.189Z,0.62
2018-12-12T16:04:35.553Z,0.56
2018-12-12T16:07:05.369Z,0.68
2018-12-12T16:09:34.451Z,0.67
2018-12-12T16:12:03.986Z,0.65
2018-12-12T16:14:33.050Z,0.58
2018-12-12T16:17:03.348Z,0.57
2018-12-12T16:19:32.483Z,0.67
2018-12-12T16:22:01.499Z,0.61
2018-12-12T16:24:32.045Z,0.60
2018-12-12T16:27:01.178Z,0.63
2018-12-12T16:29:30.300Z,0.60
2018-12-12T16:31:59.686Z,0.65
2018-12-12T16:34:35.778Z,0.66
2018-12-12T16:37:05.017Z,0.60
2018-12-12T16:39:34.054Z,0.54
2018-12-12T16:42:03.355Z,0.42
2018-12-12T16:44:35.095Z,0.44
2018-12-12T16:47:21.510Z,0.46
2018-12-12T16:49:50.829Z,0.50
2018-12-12T16:52:20.001Z,0.51
2018-12-12T16:54:49.162Z,0.50
2018-12-12T16:57:18.819Z,0.43
2018-12-12T16:59:48.067Z,0.54
2018-12-12T17:02:17.208Z,0.52
2018-12-12T17:04:46.884Z,0.55
2018-12-12T17:07:15.939Z,0.56
2018-12-12T17:09:44.948Z,0.54
2018-12-12T17:12:14.227Z,0.60
2018-12-12T17:14:43.471Z,0.56
2018-12-12T17:17:13.277Z,0.44
2018-12-12T17:19:42.513Z,0.51
2018-12-12T17:22:11.857Z,0.54
2018-12-12T17:24:41.555Z,0.54
2018-12-12T17:27:10.824Z,0.46
2018-12-12T17:29:39.990Z,0.57
2018-12-12T17:32:10.653Z,0.51
2018-12-12T17:34:41.749Z,0.50
2018-12-12T17:37:10.966Z,0.54
2018-12-12T17:39:40.395Z,0.49
2018-12-12T17:42:10.361Z,0.58
2018-12-12T17:44:40.247Z,0.73
2018-12-12T17:47:09.270Z,0.77
2018-12-12T17:49:38.481Z,0.82
2018-12-12T17:52:07.554Z,0.81
2018-12-12T17:54:36.971Z,0.99
2018-12-12T17:57:06.111Z,0.71
2018-12-12T17:59:36.352Z,0.64
2018-12-12T18:02:06.134Z,0.70
2018-12-12T18:04:53.002Z,0.87
2018-12-12T18:07:22.787Z,0.92
2018-12-12T18:09:51.846Z,1.04
2018-12-12T18:12:21.234Z,0.95
2018-12-12T18:14:50.359Z,1.09
2018-12-12T18:17:21.646Z,1.02
2018-12-12T18:19:50.700Z,1.03
2018-12-12T18:22:20.295Z,0.99
2018-12-12T18:24:54.263Z,0.97
2018-12-12T18:27:23.310Z,0.79
2018-12-12T18:29:52.370Z,0.69
2018-12-12T18:32:23.862Z,0.79
2018-12-12T18:35:10.782Z,0.85
2018-12-12T18:37:41.188Z,0.92
2018-12-12T18:40:10.498Z,0.87
2018-12-12T18:42:42.083Z,0.87
2018-12-12T18:45:11.957Z,0.84
2018-12-12T18:47:41.071Z,0.75
2018-12-12T18:50:10.318Z,0.79
2018-12-12T18:52:41.525Z,0.68
2018-12-12T18:55:12.044Z,0.71
2018-12-12T18:57:43.102Z,0.78
2018-12-12T19:00:12.396Z,0.73
2018-12-12T19:02:42.418Z,0.65
2018-12-12T19:05:11.629Z,0.69
2018-12-12T19:07:41.652Z,0.83
2018-12-12T19:10:11.193Z,0.79
2018-12-12T19:12:45.260Z,0.84
2018-12-12T19:15:15.218Z,0.77
2018-12-12T19:17:44.455Z,0.86
2018-12-12T19:20:14.964Z,0.81
2018-12-12T19:22:44.552Z,0.86
2018-12-12T19:25:14.049Z,0.89
2018-12-12T19:27:43.172Z,0.92
2018-12-12T19:30:12.574Z,1.04
2018-12-12T19:32:41.918Z,0.92
2018-12-12T19:35:11.373Z,0.91
2018-12-12T19:37:40.915Z,0.99
2018-12-12T19:40:12.319Z,1.02
2018-12-12T19:42:41.473Z,0.91
2018-12-12T19:45:11.670Z,0.95
2018-12-12T19:47:40.728Z,0.97
2018-12-12T19:50:09.956Z,1.01
2018-12-12T19:52:39.982Z,0.98
2018-12-12T19:55:09.469Z,1.12
2018-12-12T19:57:39.381Z,1.11
2018-12-12T20:00:08.885Z,1.21
2018-12-12T20:02:38.716Z,1.18
2018-12-12T20:05:08.273Z,1.16
2018-12-12T20:07:37.341Z,1.26
2018-12-12T20:10:07.880Z,1.26
2018-12-12T20:12:36.934Z,1.15
2018-12-12T20:15:09.738Z,1.13
2018-12-12T20:17:38.860Z,1.07
2018-12-12T20:20:10.157Z,1.00
2018-12-12T20:22:39.333Z,1.03
2018-12-12T20:25:08.633Z,0.97
2018-12-12T20:27:37.765Z,1.00
2018-12-12T20:30:07.269Z,1.01
2018-12-12T20:32:37.131Z,0.96
2018-12-12T20:35:06.366Z,0.99
2018-12-12T20:37:35.805Z,0.93
2018-12-12T20:40:06.681Z,0.83
2018-12-12T20:42:37.750Z,0.90
2018-12-12T20:45:07.494Z,1.01
2018-12-12T20:47:36.990Z,1.00
2018-12-12T20:50:07.155Z,1.04
2018-12-12T20:52:37.136Z,0.97
2018-12-12T20:55:06.654Z,0.98
2018-12-12T20:57:35.943Z,0.98
2018-12-12T21:00:05.966Z,1.01
2018-12-12T21:02:36.682Z,1.10
2018-12-12T21:05:06.925Z,1.02
2018-12-12T21:07:37.161Z,1.09
2018-12-12T21:10:07.585Z,1.09
2018-12-12T21:12:37.237Z,1.09
2018-12-12T21:15:08.995Z,1.10
2018-12-12T21:17:38.820Z,1.09
2018-12-12T21:20:09.321Z,1.07
2018-12-12T21:22:38.693Z,1.03
2018-12-12T21:25:09.243Z,1.08
2018-12-12T21:27:38.634Z,1.03
2018-12-12T21:30:08.722Z,0.92
2018-12-12T21:32:37.885Z,0.91
2018-12-12T21:35:07.810Z,0.88
2018-12-12T21:37:38.039Z,0.90
2018-12-12T21:40:07.496Z,0.92
2018-12-12T21:42:36.878Z,0.85
2018-12-12T21:45:07.762Z,0.83
2018-12-12T21:47:36.837Z,0.77
2018-12-12T21:50:06.989Z,0.77
2018-12-12T21:52:36.311Z,0.82
2018-12-12T21:55:05.818Z,0.83
2018-12-12T21:57:35.086Z,0.76
2018-12-12T22:00:05.082Z,0.79
2018-12-12T22:02:35.300Z,0.81
2018-12-12T22:05:05.218Z,0.81
2018-12-12T22:07:34.267Z,0.84
2018-12-12T22:10:03.337Z,0.76
2018-12-12T22:12:32.414Z,0.75
2018-12-12T22:15:01.449Z,0.78
2018-12-12T22:17:30.459Z,0.87
2018-12-12T22:19:59.555Z,0.83
2018-12-12T22:22:28.726Z,0.85
2018-12-12T22:24:58.955Z,0.90
2018-12-12T22:27:28.059Z,0.84
2018-12-12T22:29:58.120Z,0.79
2018-12-12T22:32:27.314Z,0.77
2018-12-12T22:34:56.887Z,0.82
2018-12-12T22:37:26.114Z,0.84
2018-12-12T22:39:55.207Z,0.85
2018-12-12T22:42:25.018Z,0.88
2018-12-12T22:44:54.057Z,0.83
2018-12-12T22:47:23.305Z,0.80
2018-12-12T22:49:52.850Z,0.75
2018-12-12T22:52:21.902Z,0.80
2018-12-12T22:54:51.238Z,0.85
2018-12-12T22:59:51.646Z,0.82
2018-12-12T23:02:20.735Z,0.93
2018-12-12T23:04:50.453Z,0.99
2018-12-12T23:07:20.085Z,0.85
2018-12-12T23:09:49.125Z,0.76
2018-12-12T23:12:20.713Z,0.82
2018-12-12T23:14:51.509Z,0.80
2018-12-12T23:17:21.458Z,0.72
2018-12-12T23:19:50.957Z,0.73
2018-12-12T23:22:20.179Z,0.78
2018-12-12T23:24:49.625Z,0.84
2018-12-12T23:27:18.764Z,0.85
2018-12-12T23:29:48.471Z,0.88
2018-12-12T23:32:17.883Z,0.76
2018-12-12T23:34:47.071Z,0.78
2018-12-12T23:37:16.159Z,0.80
2018-12-12T23:39:45.986Z,0.83
2018-12-12T23:42:15.005Z,0.82
2018-12-12T23:44:44.265Z,0.74
2018-12-12T23:47:13.961Z,0.81
2018-12-12T23:49:43.185Z,0.85
2018-12-12T23:52:12.681Z,0.89
2018-12-12T23:54:41.902Z,0.80
2018-12-12T23:57:10.947Z,0.84
2018-12-12T23:59:42.117Z,0.67
